createdAt,value
2019-05-09T00:02:27.589Z,6.07
2019-05-09T00:05:32.980Z,5.77
2019-05-09T00:08:36.217Z,5.30
2019-05-09T00:11:39.680Z,5.50
2019-05-09T00:14:43.443Z,6.20
2019-05-09T00:17:47.049Z,5.63
2019-05-09T00:20:53.976Z,6.03
2019-05-09T00:23:57.309Z,6.50
2019-05-09T00:27:00.732Z,6.70
2019-05-09T00:30:05.899Z,7.20
2019-05-09T00:33:09.368Z,6.57
2019-05-09T00:36:14.052Z,6.37
2019-05-09T00:39:17.732Z,5.97
2019-05-09T00:42:21.185Z,5.73
2019-05-09T00:45:33.385Z,6.00
2019-05-09T00:48:53.217Z,5.90
2019-05-09T00:51:56.079Z,5.73
2019-05-09T00:54:59.505Z,6.33
2019-05-09T00:58:04.161Z,6.20
2019-05-09T01:01:08.242Z,6.10
2019-05-09T01:04:13.619Z,6.27
2019-05-09T01:07:16.886Z,5.70
2019-05-09T01:10:20.325Z,5.73
2019-05-09T01:13:29.884Z,6.03
2019-05-09T01:16:33.641Z,7.07
2019-05-09T01:19:37.242Z,6.77
2019-05-09T01:22:40.696Z,6.40
2019-05-09T01:25:44.168Z,6.80
2019-05-09T01:28:47.597Z,6.67
2019-05-09T01:31:51.438Z,6.70
2019-05-09T01:34:54.868Z,6.53
2019-05-09T01:37:58.329Z,6.27
2019-05-09T01:41:03.824Z,6.80
2019-05-09T01:44:06.937Z,6.33
2019-05-09T01:47:10.389Z,6.00
2019-05-09T01:50:14.158Z,6.17
2019-05-09T01:53:19.261Z,7.00
2019-05-09T01:56:23.534Z,6.67
2019-05-09T01:59:27.126Z,7.63
2019-05-09T02:02:30.581Z,6.53
2019-05-09T02:05:34.119Z,6.37
2019-05-09T02:08:37.540Z,7.57
2019-05-09T02:11:43.338Z,6.17
2019-05-09T02:14:59.689Z,5.40
2019-05-09T02:18:07.441Z,5.30
2019-05-09T02:21:12.356Z,5.47
2019-05-09T02:24:16.061Z,4.83
2019-05-09T02:27:19.504Z,4.70
2019-05-09T02:30:25.400Z,4.50
2019-05-09T02:33:28.282Z,4.00
2019-05-09T02:36:31.741Z,3.93
2019-05-09T02:39:35.165Z,3.83
2019-05-09T02:42:39.675Z,3.93
2019-05-09T02:45:54.307Z,4.67
2019-05-09T02:48:59.458Z,4.00
2019-05-09T02:52:02.924Z,4.27
2019-05-09T02:55:09.936Z,4.63
2019-05-09T02:58:13.909Z,4.40
2019-05-09T03:01:19.098Z,4.70
2019-05-09T03:04:22.605Z,4.87
2019-05-09T03:07:48.261Z,4.67
2019-05-09T03:10:50.950Z,4.63
2019-05-09T03:13:54.378Z,5.20
2019-05-09T03:16:58.784Z,4.67
2019-05-09T03:20:03.815Z,4.87
2019-05-09T03:23:09.177Z,4.80
2019-05-09T03:26:14.092Z,4.83
2019-05-09T03:29:29.199Z,4.00
2019-05-09T03:32:33.513Z,4.87
2019-05-09T03:35:37.878Z,4.23
2019-05-09T03:38:41.468Z,4.80
2019-05-09T03:41:44.933Z,4.47
2019-05-09T03:44:48.368Z,4.20
2019-05-09T03:47:53.466Z,5.10
2019-05-09T03:50:57.760Z,6.43
2019-05-09T03:54:01.329Z,4.30
2019-05-09T03:57:09.648Z,4.70
2019-05-09T04:00:13.417Z,4.97
2019-05-09T04:03:19.916Z,3.90
2019-05-09T04:06:22.017Z,4.00
2019-05-09T04:09:27.374Z,3.57
2019-05-09T04:12:30.637Z,4.37
2019-05-09T04:15:34.061Z,3.87
2019-05-09T04:18:37.680Z,4.03
2019-05-09T04:21:42.682Z,3.60
2019-05-09T04:24:47.385Z,4.33
2019-05-09T04:27:52.204Z,3.83
2019-05-09T04:30:55.658Z,3.87
2019-05-09T04:33:59.085Z,4.07
2019-05-09T04:37:02.548Z,4.20
2019-05-09T04:40:08.126Z,4.00
2019-05-09T04:43:18.352Z,5.20
2019-05-09T04:46:20.757Z,5.43
2019-05-09T04:49:21.562Z,3.60
2019-05-09T04:52:25.008Z,3.00
2019-05-09T04:55:30.084Z,3.33
2019-05-09T04:58:33.533Z,3.63
2019-05-09T05:01:39.037Z,2.63
2019-05-09T05:04:42.725Z,3.23
2019-05-09T05:07:48.088Z,2.40
2019-05-09T05:10:51.337Z,4.67
2019-05-09T05:13:54.814Z,2.93
2019-05-09T05:17:07.392Z,2.77
2019-05-09T05:20:08.199Z,3.53
2019-05-09T05:23:21.656Z,3.93
2019-05-09T05:26:27.555Z,3.43
2019-05-09T05:29:30.281Z,2.83
2019-05-09T05:32:35.378Z,2.27
2019-05-09T05:35:43.348Z,1.60
2019-05-09T05:38:47.983Z,1.90
2019-05-09T05:41:51.629Z,1.70
2019-05-09T05:44:55.079Z,2.60
2019-05-09T05:48:09.440Z,2.30
2019-05-09T05:51:12.965Z,3.03
2019-05-09T05:54:18.170Z,1.00
2019-05-09T05:57:21.701Z,1.80
2019-05-09T06:00:28.366Z,1.80
2019-05-09T06:03:31.283Z,2.37
2019-05-09T06:06:34.733Z,1.67
2019-05-09T06:09:38.226Z,3.17
2019-05-09T06:12:41.712Z,1.50
2019-05-09T06:15:45.147Z,3.37
2019-05-09T06:18:48.607Z,2.43
2019-05-09T06:21:52.489Z,2.43
2019-05-09T06:24:58.095Z,1.50
2019-05-09T06:28:01.236Z,2.87
2019-05-09T06:31:04.698Z,3.33
2019-05-09T06:34:08.426Z,1.90
2019-05-09T06:37:11.994Z,1.70
2019-05-09T06:40:21.383Z,1.93
2019-05-09T06:43:25.424Z,3.33
2019-05-09T06:46:30.503Z,3.47
2019-05-09T06:49:38.569Z,3.40
2019-05-09T06:52:42.108Z,3.83
2019-05-09T06:55:47.488Z,2.67
2019-05-09T06:58:50.733Z,2.10
2019-05-09T07:01:58.509Z,2.53
2019-05-09T07:05:03.597Z,3.20
2019-05-09T07:08:14.786Z,2.53
2019-05-09T07:11:19.180Z,3.23
2019-05-09T07:14:41.746Z,2.13
2019-05-09T07:17:43.478Z,2.10
2019-05-09T07:20:48.312Z,2.50
2019-05-09T07:23:51.964Z,4.50
2019-05-09T07:26:55.424Z,3.90
2019-05-09T07:30:00.490Z,3.03
2019-05-09T07:33:14.477Z,3.50
2019-05-09T07:36:18.920Z,2.40
2019-05-09T07:39:22.561Z,5.20
2019-05-09T07:42:28.346Z,1.50
2019-05-09T07:45:31.177Z,1.87
2019-05-09T07:48:38.122Z,2.93
2019-05-09T07:51:41.217Z,2.30
2019-05-09T07:54:44.690Z,2.20
2019-05-09T07:57:54.949Z,2.03
2019-05-09T08:00:53.338Z,2.30
2019-05-09T08:03:58.372Z,4.13
2019-05-09T08:07:02.763Z,2.43
2019-05-09T08:10:09.062Z,3.63
2019-05-09T08:13:12.180Z,2.90
2019-05-09T08:16:15.768Z,4.20
2019-05-09T08:19:19.252Z,3.87
2019-05-09T08:22:25.938Z,3.10
2019-05-09T08:25:28.009Z,1.90
2019-05-09T08:28:31.493Z,2.87
2019-05-09T08:31:34.977Z,2.73
2019-05-09T08:34:38.473Z,3.80
2019-05-09T08:37:41.944Z,4.87
2019-05-09T08:40:49.942Z,3.23
2019-05-09T08:43:53.400Z,2.37
2019-05-09T08:46:57.420Z,2.23
2019-05-09T08:50:23.077Z,1.50
2019-05-09T08:53:27.613Z,3.30
2019-05-09T08:56:31.241Z,3.17
2019-05-09T08:59:34.705Z,2.90
2019-05-09T09:02:38.153Z,2.37
2019-05-09T09:05:43.435Z,2.87
2019-05-09T09:08:48.308Z,5.07
2019-05-09T09:11:51.979Z,4.53
2019-05-09T09:14:55.456Z,2.33
2019-05-09T09:17:58.891Z,3.30
2019-05-09T09:21:02.363Z,2.83
2019-05-09T09:24:05.793Z,2.67
2019-05-09T09:27:09.257Z,3.13
2019-05-09T09:30:20.276Z,1.70
2019-05-09T09:33:18.031Z,2.57
2019-05-09T09:36:21.464Z,1.83
2019-05-09T09:39:27.289Z,3.50
2019-05-09T09:42:30.353Z,4.93
2019-05-09T09:45:33.816Z,3.00
2019-05-09T09:48:38.815Z,2.27
2019-05-09T09:51:42.425Z,2.97
2019-05-09T09:54:48.100Z,2.30
2019-05-09T09:57:51.057Z,4.40
2019-05-09T10:00:59.069Z,4.90
2019-05-09T10:04:16.618Z,4.13
2019-05-09T10:07:12.929Z,4.40
2019-05-09T10:10:31.085Z,3.47
2019-05-09T10:13:34.533Z,2.47
2019-05-09T10:16:39.613Z,4.40
2019-05-09T10:19:44.749Z,2.50
2019-05-09T10:22:58.646Z,3.63
2019-05-09T10:25:53.473Z,3.83
2019-05-09T10:28:56.913Z,2.00
2019-05-09T10:32:00.380Z,3.90
2019-05-09T10:35:05.237Z,4.20
2019-05-09T10:38:09.045Z,2.53
2019-05-09T10:41:12.751Z,1.97
2019-05-09T10:44:18.123Z,3.13
2019-05-09T10:47:31.830Z,3.70
2019-05-09T10:50:36.966Z,2.80
2019-05-09T10:53:40.452Z,4.13
2019-05-09T10:56:43.938Z,2.57
2019-05-09T10:59:48.273Z,4.30
2019-05-09T11:02:51.912Z,2.93
2019-05-09T11:05:55.342Z,4.03
2019-05-09T11:08:58.841Z,3.23
2019-05-09T11:12:02.394Z,4.23
2019-05-09T11:15:08.991Z,5.77
2019-05-09T11:18:11.794Z,2.50
2019-05-09T11:21:15.224Z,3.00
2019-05-09T11:24:18.983Z,2.90
2019-05-09T11:27:22.608Z,3.47
2019-05-09T11:30:27.974Z,2.33
2019-05-09T11:33:31.225Z,3.13
2019-05-09T11:36:34.674Z,5.77
2019-05-09T11:39:42.008Z,4.13
2019-05-09T11:42:43.289Z,2.87
2019-05-09T11:45:47.904Z,2.83
2019-05-09T11:48:51.453Z,4.80
2019-05-09T11:51:57.433Z,2.97
2019-05-09T11:55:00.072Z,2.93
2019-05-09T11:58:03.582Z,1.70
2019-05-09T12:01:08.315Z,1.60
2019-05-09T12:04:11.878Z,3.53
2019-05-09T12:07:17.672Z,2.00
2019-05-09T12:10:20.490Z,3.23
2019-05-09T12:13:23.954Z,2.17
2019-05-09T12:16:27.973Z,3.73
2019-05-09T12:19:31.621Z,1.87
2019-05-09T12:22:35.055Z,2.60
2019-05-09T12:25:38.820Z,2.80
2019-05-09T12:28:42.322Z,1.97
2019-05-09T12:31:48.322Z,2.80
2019-05-09T12:34:50.937Z,2.13
2019-05-09T12:37:54.404Z,3.20
2019-05-09T12:41:00.502Z,3.77
2019-05-09T12:44:03.131Z,2.90
2019-05-09T12:47:12.645Z,2.40
2019-05-09T12:50:18.544Z,3.70
2019-05-09T12:53:21.404Z,3.93
2019-05-09T12:56:24.912Z,1.33
2019-05-09T12:59:28.739Z,2.33
2019-05-09T13:02:32.327Z,2.33
2019-05-09T13:05:35.777Z,1.80
2019-05-09T13:08:39.200Z,2.20
2019-05-09T13:11:42.659Z,2.10
2019-05-09T13:14:48.446Z,1.57
2019-05-09T13:17:51.573Z,1.20
2019-05-09T13:20:55.034Z,1.27
2019-05-09T13:23:58.786Z,1.07
2019-05-09T13:27:02.681Z,1.83
2019-05-09T13:30:08.357Z,4.70
2019-05-09T13:33:11.991Z,2.17
2019-05-09T13:36:15.421Z,1.27
2019-05-09T13:39:18.903Z,3.40
2019-05-09T13:42:22.414Z,1.10
2019-05-09T13:45:28.447Z,1.97
2019-05-09T13:48:56.195Z,3.10
2019-05-09T13:51:47.481Z,2.47
2019-05-09T13:54:41.398Z,1.67
2019-05-09T13:57:44.866Z,1.87
2019-05-09T14:00:59.035Z,1.70
2019-05-09T14:03:53.477Z,1.20
2019-05-09T14:06:56.921Z,2.60
2019-05-09T14:10:00.382Z,1.43
2019-05-09T14:13:09.370Z,0.97
2019-05-09T14:16:19.304Z,2.27
2019-05-09T14:19:40.843Z,2.17
2019-05-09T14:22:20.130Z,2.73
2019-05-09T14:25:23.681Z,1.13
2019-05-09T14:28:28.640Z,1.10
2019-05-09T14:31:32.648Z,0.80
2019-05-09T14:34:38.160Z,1.47
2019-05-09T14:37:41.546Z,0.93
2019-05-09T14:40:47.006Z,0.80
2019-05-09T14:43:50.177Z,0.80
2019-05-09T14:46:53.610Z,0.70
2019-05-09T14:49:59.282Z,0.60
2019-05-09T14:53:02.237Z,0.50
2019-05-09T14:56:08.525Z,0.50
2019-05-09T14:59:10.997Z,0.70
2019-05-09T15:02:14.445Z,1.30
2019-05-09T15:05:30.088Z,1.50
2019-05-09T15:08:33.882Z,1.70
2019-05-09T15:11:39.504Z,1.90
2019-05-09T15:14:43.221Z,1.23
2019-05-09T15:17:51.159Z,0.77
2019-05-09T15:20:54.726Z,0.60
2019-05-09T15:23:59.282Z,2.57
2019-05-09T15:27:02.904Z,3.03
2019-05-09T15:30:06.901Z,0.77
2019-05-09T15:33:10.330Z,0.60
2019-05-09T15:36:13.816Z,0.80
2019-05-09T15:39:18.417Z,0.87
2019-05-09T15:42:22.269Z,1.10
2019-05-09T15:45:28.578Z,0.60
2019-05-09T15:48:32.192Z,0.90
2019-05-09T15:51:35.620Z,0.83
2019-05-09T15:54:39.094Z,1.10
2019-05-09T15:57:42.530Z,2.60
2019-05-09T16:00:47.753Z,1.50
2019-05-09T16:03:51.316Z,2.10
2019-05-09T16:06:54.752Z,1.93
2019-05-09T16:09:58.234Z,1.90
2019-05-09T16:13:01.714Z,1.30
2019-05-09T16:16:05.267Z,1.67
2019-05-09T16:19:09.113Z,1.40
2019-05-09T16:22:12.673Z,2.50
2019-05-09T16:25:18.202Z,1.30
2019-05-09T16:28:21.309Z,1.20
2019-05-09T16:31:24.776Z,0.97
2019-05-09T16:34:28.352Z,1.00
2019-05-09T16:37:52.849Z,2.40
2019-05-09T16:40:38.610Z,2.70
2019-05-09T16:43:42.865Z,0.80
2019-05-09T16:46:48.365Z,1.03
2019-05-09T16:49:51.469Z,0.70
2019-05-09T16:52:58.006Z,1.03
2019-05-09T16:56:00.424Z,2.57
2019-05-09T16:59:03.926Z,0.90
2019-05-09T17:02:18.881Z,0.70
2019-05-09T17:05:12.638Z,0.70
2019-05-09T17:08:17.752Z,0.97
2019-05-09T17:11:21.492Z,1.00
2019-05-09T17:14:25.024Z,0.73
2019-05-09T17:17:28.507Z,2.10
2019-05-09T17:20:33.665Z,1.07
2019-05-09T17:23:38.467Z,5.50
2019-05-09T17:26:42.047Z,1.70
2019-05-09T17:29:47.836Z,1.30
2019-05-09T17:32:51.421Z,1.43
2019-05-09T17:35:54.876Z,1.27
2019-05-09T17:38:58.434Z,2.10
2019-05-09T17:42:01.869Z,3.77
2019-05-09T17:45:05.670Z,1.10
2019-05-09T17:48:09.096Z,1.77
2019-05-09T17:51:12.561Z,1.80
2019-05-09T17:54:18.114Z,1.20
2019-05-09T17:57:21.177Z,1.10
2019-05-09T18:00:24.872Z,1.30
2019-05-09T18:03:29.132Z,2.10
2019-05-09T18:06:32.914Z,3.43
2019-05-09T18:09:36.357Z,1.90
2019-05-09T18:12:39.818Z,3.40
2019-05-09T18:15:43.315Z,1.10
2019-05-09T18:18:48.041Z,1.80
2019-05-09T18:21:51.668Z,3.77
2019-05-09T18:24:55.097Z,1.40
2019-05-09T18:27:58.568Z,1.27
2019-05-09T18:31:02.004Z,1.37
2019-05-09T18:34:07.291Z,1.40
2019-05-09T18:37:10.645Z,1.50
2019-05-09T18:40:14.850Z,3.00
2019-05-09T18:43:18.316Z,4.07
2019-05-09T18:46:21.788Z,3.27
2019-05-09T18:49:25.305Z,3.73
2019-05-09T18:52:28.737Z,1.60
2019-05-09T18:55:32.192Z,1.87
2019-05-09T18:58:36.206Z,2.30
2019-05-09T19:01:40.002Z,3.73
2019-05-09T19:04:43.536Z,1.87
2019-05-09T19:07:47.035Z,2.27
2019-05-09T19:10:52.278Z,3.37
2019-05-09T19:13:56.705Z,2.50
2019-05-09T19:17:18.056Z,2.90
2019-05-09T19:20:29.165Z,3.13
2019-05-09T19:23:32.872Z,2.10
2019-05-09T19:26:36.424Z,1.53
2019-05-09T19:29:39.941Z,1.40
2019-05-09T19:32:43.393Z,9.33
2019-05-09T19:35:46.854Z,2.97
2019-05-09T19:38:50.361Z,2.00
2019-05-09T19:41:53.908Z,1.57
2019-05-09T19:44:57.381Z,9.53
2019-05-09T19:48:00.846Z,4.43
2019-05-09T19:51:04.289Z,2.50
2019-05-09T19:54:07.737Z,3.03
2019-05-09T19:57:11.177Z,2.33
2019-05-09T20:00:15.831Z,1.60
2019-05-09T20:03:19.309Z,2.03
2019-05-09T20:06:22.737Z,3.33
2019-05-09T20:09:27.836Z,1.40
2019-05-09T20:12:48.175Z,1.40
2019-05-09T20:15:52.204Z,1.37
2019-05-09T20:18:55.913Z,1.40
2019-05-09T20:21:59.389Z,1.40
2019-05-09T20:25:03.071Z,1.57
2019-05-09T20:28:06.520Z,1.37
2019-05-09T20:31:10.086Z,1.43
2019-05-09T20:34:13.586Z,1.50
2019-05-09T20:37:17.034Z,1.47
2019-05-09T20:40:20.688Z,1.60
2019-05-09T20:43:24.329Z,1.40
2019-05-09T20:46:27.975Z,1.60
2019-05-09T20:49:31.617Z,1.87
2019-05-09T20:52:35.257Z,2.37
2019-05-09T20:55:38.897Z,1.70
2019-05-09T20:58:42.541Z,1.83
2019-05-09T21:01:48.170Z,1.73
2019-05-09T21:04:51.850Z,1.97
2019-05-09T21:07:55.460Z,1.80
2019-05-09T21:10:59.101Z,2.17
2019-05-09T21:14:02.732Z,1.60
2019-05-09T21:17:06.389Z,1.80
2019-05-09T21:20:10.145Z,2.10
2019-05-09T21:23:24.422Z,2.10
2019-05-09T21:26:19.132Z,2.37
2019-05-09T21:29:22.769Z,1.90
2019-05-09T21:32:26.483Z,2.00
2019-05-09T21:35:29.990Z,1.87
2019-05-09T21:38:33.485Z,4.83
2019-05-09T21:41:36.997Z,2.40
2019-05-09T21:44:40.452Z,2.90
2019-05-09T21:47:43.897Z,2.10
2019-05-09T21:50:47.340Z,1.90
2019-05-09T21:53:50.804Z,2.00
2019-05-09T21:56:54.255Z,2.13
2019-05-09T21:59:57.717Z,2.07
2019-05-09T22:03:01.158Z,3.17
2019-05-09T22:06:04.613Z,2.43
2019-05-09T22:09:10.084Z,3.00
2019-05-09T22:12:13.545Z,2.50
2019-05-09T22:15:17.224Z,2.30
2019-05-09T22:18:20.681Z,2.27
2019-05-09T22:21:24.138Z,2.40
2019-05-09T22:24:27.682Z,2.30
2019-05-09T22:27:31.110Z,2.93
2019-05-09T22:30:34.581Z,2.60
2019-05-09T22:33:38.115Z,3.93
2019-05-09T22:36:41.552Z,2.87
2019-05-09T22:39:45.013Z,2.97
2019-05-09T22:42:48.450Z,3.40
2019-05-09T22:45:51.921Z,3.50
2019-05-09T22:48:55.357Z,3.40
2019-05-09T22:51:58.828Z,3.43
2019-05-09T22:55:02.259Z,3.43
2019-05-09T22:58:05.771Z,4.33
2019-05-09T23:01:09.241Z,3.23
2019-05-09T23:04:12.697Z,3.57
2019-05-09T23:07:16.132Z,3.57
2019-05-09T23:10:19.585Z,3.53
2019-05-09T23:13:23.026Z,3.70
2019-05-09T23:16:28.123Z,3.93
2019-05-09T23:19:31.554Z,4.13
2019-05-09T23:22:35.004Z,4.03
2019-05-09T23:25:38.463Z,4.40
2019-05-09T23:28:41.924Z,4.60
2019-05-09T23:31:51.329Z,4.57
2019-05-09T23:34:54.860Z,4.57
2019-05-09T23:37:58.795Z,4.83
2019-05-09T23:41:02.222Z,4.53
2019-05-09T23:44:05.685Z,5.17
2019-05-09T23:47:09.172Z,4.77
2019-05-09T23:50:12.730Z,5.17
2019-05-09T23:53:20.717Z,4.87
2019-05-09T23:56:42.135Z,5.13
